createdAt,value
2019-06-26T00:00:43.619Z,6.57
2019-06-26T00:03:10.425Z,7.03
2019-06-26T00:05:37.031Z,6.53
2019-06-26T00:08:03.815Z,6.77
2019-06-26T00:10:30.478Z,7.10
2019-06-26T00:12:57.136Z,7.07
2019-06-26T00:15:23.737Z,7.20
2019-06-26T00:17:50.370Z,7.40
2019-06-26T00:20:20.538Z,7.20
2019-06-26T00:22:47.153Z,8.57
2019-06-26T00:25:13.785Z,8.03
2019-06-26T00:27:40.416Z,8.80
2019-06-26T00:30:07.400Z,8.87
2019-06-26T00:32:34.098Z,9.20
2019-06-26T00:35:00.737Z,9.23
2019-06-26T00:37:27.464Z,8.80
2019-06-26T00:39:54.086Z,9.97
2019-06-26T00:42:20.722Z,10.10
2019-06-26T00:44:47.439Z,11.23
2019-06-26T00:47:14.072Z,10.77
2019-06-26T00:49:40.686Z,11.60
2019-06-26T00:52:07.337Z,10.70
2019-06-26T00:54:34.154Z,12.90
2019-06-26T00:57:00.775Z,14.73
2019-06-26T00:59:27.643Z,15.40
2019-06-26T01:01:54.267Z,16.50
2019-06-26T01:04:22.781Z,16.43
2019-06-26T01:06:49.419Z,18.23
2019-06-26T01:09:16.139Z,17.93
2019-06-26T01:11:43.079Z,19.13
2019-06-26T01:14:10.007Z,17.87
2019-06-26T01:16:36.730Z,19.90
2019-06-26T01:19:03.755Z,20.63
2019-06-26T01:21:30.400Z,19.93
2019-06-26T01:23:57.306Z,21.73
2019-06-26T01:26:24.253Z,21.77
2019-06-26T01:28:50.884Z,21.87
2019-06-26T01:31:17.499Z,22.60
2019-06-26T01:33:44.140Z,23.30
2019-06-26T01:36:10.763Z,23.73
2019-06-26T01:38:37.390Z,23.07
2019-06-26T01:41:04.130Z,22.53
2019-06-26T01:43:30.769Z,22.03
2019-06-26T01:45:57.383Z,23.53
2019-06-26T01:48:24.170Z,24.90
2019-06-26T01:50:50.859Z,24.17
2019-06-26T01:53:17.495Z,26.13
2019-06-26T01:55:44.127Z,25.80
2019-06-26T01:58:10.846Z,26.77
2019-06-26T02:00:37.468Z,23.63
2019-06-26T02:03:04.197Z,27.07
2019-06-26T02:05:30.832Z,25.90
2019-06-26T02:07:57.566Z,27.07
2019-06-26T02:10:24.279Z,28.13
2019-06-26T02:12:50.911Z,26.17
2019-06-26T02:15:17.543Z,26.27
2019-06-26T02:17:44.163Z,25.60
2019-06-26T02:20:10.900Z,23.33
2019-06-26T02:22:37.520Z,25.67
2019-06-26T02:25:04.754Z,26.73
2019-06-26T02:27:31.375Z,27.13
2019-06-26T02:30:16.582Z,32.20
2019-06-26T02:32:43.291Z,29.97
2019-06-26T02:35:14.811Z,33.90
2019-06-26T02:37:41.575Z,33.20
2019-06-26T02:40:08.407Z,33.57
2019-06-26T02:42:35.233Z,32.50
2019-06-26T02:45:02.759Z,34.23
2019-06-26T02:47:29.411Z,34.67
2019-06-26T02:49:56.039Z,33.57
2019-06-26T02:52:22.659Z,35.90
2019-06-26T02:54:49.554Z,35.10
2019-06-26T02:57:16.251Z,37.67
2019-06-26T02:59:42.894Z,36.33
2019-06-26T03:02:09.531Z,35.83
2019-06-26T03:04:36.181Z,35.33
2019-06-26T03:07:02.982Z,35.73
2019-06-26T03:09:29.614Z,37.47
2019-06-26T03:11:56.235Z,36.33
2019-06-26T03:14:22.873Z,35.13
2019-06-26T03:16:49.491Z,35.40
2019-06-26T03:19:16.118Z,35.53
2019-06-26T03:21:42.767Z,37.13
2019-06-26T03:24:09.463Z,36.07
2019-06-26T03:26:36.161Z,34.67
2019-06-26T03:29:02.811Z,34.43
2019-06-26T03:31:29.463Z,36.33
2019-06-26T03:33:56.075Z,35.87
2019-06-26T03:36:22.711Z,36.13
2019-06-26T03:38:49.322Z,36.23
2019-06-26T03:41:15.958Z,35.30
2019-06-26T03:43:42.575Z,36.47
2019-06-26T03:46:09.210Z,37.13
2019-06-26T03:48:35.838Z,35.50
2019-06-26T03:51:02.693Z,36.33
2019-06-26T03:53:29.398Z,33.67
2019-06-26T03:55:56.044Z,35.03
2019-06-26T03:58:22.693Z,35.17
2019-06-26T04:00:49.326Z,32.23
2019-06-26T04:03:15.938Z,34.20
2019-06-26T04:05:42.717Z,34.23
2019-06-26T04:08:09.408Z,34.33
2019-06-26T04:10:36.141Z,33.67
2019-06-26T04:13:03.259Z,34.20
2019-06-26T04:15:41.417Z,32.23
2019-06-26T04:17:58.534Z,35.10
2019-06-26T04:20:25.167Z,38.97
2019-06-26T04:22:51.778Z,37.57
2019-06-26T04:25:18.434Z,33.80
2019-06-26T04:27:45.050Z,34.23
2019-06-26T04:30:11.794Z,33.53
2019-06-26T04:32:38.452Z,34.63
2019-06-26T04:35:05.482Z,36.27
2019-06-26T04:37:32.188Z,41.93
2019-06-26T04:39:58.872Z,34.77
2019-06-26T04:42:25.524Z,33.73
2019-06-26T04:44:52.147Z,33.37
2019-06-26T04:47:18.780Z,33.37
2019-06-26T04:49:45.389Z,32.00
2019-06-26T04:52:12.046Z,31.63
2019-06-26T04:54:38.751Z,31.23
2019-06-26T04:57:05.382Z,31.07
2019-06-26T04:59:31.998Z,30.63
2019-06-26T05:01:58.635Z,30.77
2019-06-26T05:04:25.324Z,31.63
2019-06-26T05:06:51.954Z,31.23
2019-06-26T05:09:18.617Z,33.90
2019-06-26T05:11:45.450Z,32.10
2019-06-26T05:14:12.071Z,32.67
2019-06-26T05:16:38.698Z,34.23
2019-06-26T05:19:05.310Z,33.03
2019-06-26T05:21:31.942Z,33.13
2019-06-26T05:24:10.555Z,33.53
2019-06-26T05:26:37.386Z,33.83
2019-06-26T05:29:04.002Z,34.23
2019-06-26T05:31:30.718Z,35.07
2019-06-26T05:33:57.576Z,34.80
2019-06-26T05:36:24.194Z,34.27
2019-06-26T05:38:50.814Z,33.00
2019-06-26T05:41:17.443Z,31.93
2019-06-26T05:43:44.088Z,36.20
2019-06-26T05:46:11.175Z,34.53
2019-06-26T05:48:56.159Z,30.03
2019-06-26T05:51:22.799Z,31.87
2019-06-26T05:54:07.791Z,29.57
2019-06-26T05:56:34.626Z,29.07
2019-06-26T05:59:21.363Z,30.43
2019-06-26T06:01:47.998Z,29.83
2019-06-26T06:04:14.614Z,30.00
2019-06-26T06:06:42.355Z,29.10
2019-06-26T06:09:09.299Z,32.10
2019-06-26T06:11:36.265Z,27.50
2019-06-26T06:14:03.044Z,30.97
2019-06-26T06:16:29.702Z,40.87
2019-06-26T06:18:56.266Z,30.63
2019-06-26T06:21:22.822Z,31.13
2019-06-26T06:23:49.486Z,31.20
2019-06-26T06:26:16.126Z,31.60
2019-06-26T06:28:42.758Z,30.87
2019-06-26T06:31:09.375Z,31.70
2019-06-26T06:33:35.994Z,32.23
2019-06-26T06:36:02.607Z,30.27
2019-06-26T06:38:29.239Z,30.67
2019-06-26T06:41:14.386Z,38.10
2019-06-26T06:43:41.019Z,45.13
2019-06-26T06:46:07.634Z,37.93
2019-06-26T06:48:34.374Z,35.87
2019-06-26T06:51:00.990Z,36.80
2019-06-26T06:53:27.626Z,34.30
2019-06-26T06:55:54.246Z,35.83
2019-06-26T06:58:20.902Z,34.70
2019-06-26T07:00:47.578Z,35.77
2019-06-26T07:03:14.969Z,34.13
2019-06-26T07:05:41.670Z,34.60
2019-06-26T07:08:08.312Z,35.13
2019-06-26T07:10:34.974Z,33.30
2019-06-26T07:13:01.702Z,34.70
2019-06-26T07:15:28.703Z,31.83
2019-06-26T07:17:55.798Z,30.77
2019-06-26T07:20:22.774Z,30.00
2019-06-26T07:22:49.422Z,32.37
2019-06-26T07:25:16.754Z,30.40
2019-06-26T07:27:43.474Z,31.60
2019-06-26T07:30:10.229Z,29.17
2019-06-26T07:32:36.850Z,30.57
2019-06-26T07:35:04.476Z,29.83
2019-06-26T07:37:31.095Z,28.33
2019-06-26T07:40:01.472Z,27.37
2019-06-26T07:42:26.238Z,26.63
2019-06-26T07:44:52.882Z,27.13
2019-06-26T07:47:23.514Z,25.60
2019-06-26T07:49:48.031Z,26.07
2019-06-26T07:52:14.746Z,24.27
2019-06-26T07:54:41.494Z,25.37
2019-06-26T07:57:08.111Z,25.20
2019-06-26T07:59:34.738Z,23.37
2019-06-26T08:02:01.382Z,23.20
2019-06-26T08:04:28.007Z,23.53
2019-06-26T08:06:54.744Z,23.87
2019-06-26T08:09:21.470Z,25.20
2019-06-26T08:11:48.150Z,25.40
2019-06-26T08:14:14.964Z,23.83
2019-06-26T08:16:41.726Z,25.30
2019-06-26T08:19:08.378Z,24.07
2019-06-26T08:21:35.209Z,23.60
2019-06-26T08:24:01.881Z,22.17
2019-06-26T08:26:28.498Z,20.27
2019-06-26T08:28:55.328Z,19.20
2019-06-26T08:31:22.167Z,21.80
2019-06-26T08:33:48.774Z,23.83
2019-06-26T08:36:15.406Z,21.17
2019-06-26T08:38:42.019Z,23.17
2019-06-26T08:41:08.754Z,20.47
2019-06-26T08:43:35.474Z,21.87
2019-06-26T08:46:02.115Z,20.90
2019-06-26T08:48:39.596Z,20.43
2019-06-26T08:50:57.286Z,22.70
2019-06-26T08:53:23.902Z,22.53
2019-06-26T08:55:50.534Z,22.27
2019-06-26T08:58:17.162Z,21.97
2019-06-26T09:01:02.665Z,20.50
2019-06-26T09:03:29.370Z,19.33
2019-06-26T09:05:56.284Z,20.07
2019-06-26T09:08:23.026Z,20.53
2019-06-26T09:10:49.928Z,19.33
2019-06-26T09:13:16.581Z,22.10
2019-06-26T09:15:43.225Z,19.97
2019-06-26T09:18:10.078Z,19.10
2019-06-26T09:20:40.419Z,22.97
2019-06-26T09:23:07.135Z,20.33
2019-06-26T09:25:33.966Z,21.33
2019-06-26T09:28:00.582Z,20.40
2019-06-26T09:30:27.419Z,20.07
2019-06-26T09:33:12.723Z,22.03
2019-06-26T09:35:39.349Z,18.83
2019-06-26T09:38:05.970Z,20.37
2019-06-26T09:40:32.604Z,20.83
2019-06-26T09:42:59.215Z,20.63
2019-06-26T09:45:25.951Z,20.30
2019-06-26T09:47:52.562Z,19.10
2019-06-26T09:50:19.790Z,19.00
2019-06-26T09:52:46.402Z,17.83
2019-06-26T09:55:13.535Z,19.33
2019-06-26T09:57:40.152Z,20.40
2019-06-26T10:00:09.006Z,20.37
2019-06-26T10:02:35.632Z,17.23
2019-06-26T10:05:03.354Z,19.07
2019-06-26T10:07:29.969Z,21.17
2019-06-26T10:09:56.600Z,17.80
2019-06-26T10:12:23.223Z,18.47
2019-06-26T10:14:49.854Z,17.47
2019-06-26T10:17:16.490Z,16.20
2019-06-26T10:19:43.239Z,21.37
2019-06-26T10:22:09.918Z,15.27
2019-06-26T10:24:36.754Z,16.63
2019-06-26T10:27:03.490Z,15.10
2019-06-26T10:29:30.127Z,12.77
2019-06-26T10:32:15.574Z,14.00
2019-06-26T10:34:42.201Z,18.37
2019-06-26T10:37:08.928Z,12.33
2019-06-26T10:39:35.657Z,13.60
2019-06-26T10:42:02.870Z,13.50
2019-06-26T10:44:29.606Z,10.83
2019-06-26T10:46:56.243Z,12.00
2019-06-26T10:49:27.438Z,11.50
2019-06-26T10:51:52.244Z,10.07
2019-06-26T10:54:19.254Z,11.17
2019-06-26T10:56:46.014Z,10.37
2019-06-26T10:59:12.633Z,10.90
2019-06-26T11:01:39.260Z,11.30
2019-06-26T11:04:05.826Z,11.37
2019-06-26T11:06:32.403Z,10.73
2019-06-26T11:08:59.059Z,11.87
2019-06-26T11:11:28.610Z,19.43
2019-06-26T11:13:55.240Z,11.73
2019-06-26T11:16:21.954Z,13.33
2019-06-26T11:18:48.583Z,12.27
2019-06-26T11:21:15.236Z,12.07
2019-06-26T11:24:00.388Z,15.33
2019-06-26T11:26:27.386Z,13.17
2019-06-26T11:28:54.785Z,12.03
2019-06-26T11:31:21.646Z,10.13
2019-06-26T11:33:48.335Z,10.57
2019-06-26T11:36:15.107Z,13.63
2019-06-26T11:38:41.722Z,11.37
2019-06-26T11:41:08.390Z,12.47
2019-06-26T11:43:35.098Z,13.73
2019-06-26T11:46:01.783Z,15.67
2019-06-26T11:48:28.540Z,14.47
2019-06-26T11:51:13.737Z,16.13
2019-06-26T11:53:40.426Z,15.40
2019-06-26T11:56:28.925Z,17.10
2019-06-26T11:58:55.654Z,15.43
2019-06-26T12:01:23.530Z,15.37
2019-06-26T12:03:50.464Z,16.80
2019-06-26T12:06:19.997Z,16.10
2019-06-26T12:08:46.615Z,15.23
2019-06-26T12:11:13.339Z,16.40
2019-06-26T12:13:40.099Z,20.77
2019-06-26T12:16:07.783Z,15.43
2019-06-26T12:18:35.101Z,14.05
2019-06-26T12:21:02.544Z,14.00
2019-06-26T12:23:29.722Z,14.18
2019-06-26T12:25:56.965Z,14.80
2019-06-26T12:28:24.062Z,19.33
2019-06-26T12:30:51.350Z,12.23
2019-06-26T12:33:18.097Z,15.03
2019-06-26T12:35:44.708Z,13.62
2019-06-26T12:38:11.338Z,16.57
2019-06-26T12:40:37.958Z,21.05
2019-06-26T12:43:04.586Z,23.35
2019-06-26T12:45:31.203Z,18.27
2019-06-26T12:47:57.886Z,11.78
2019-06-26T12:50:34.613Z,11.75
2019-06-26T12:52:53.357Z,11.63
2019-06-26T12:55:20.072Z,11.00
2019-06-26T12:57:46.823Z,11.80
2019-06-26T13:00:13.606Z,11.20
2019-06-26T13:02:40.293Z,10.85
2019-06-26T13:05:07.283Z,11.10
2019-06-26T13:07:34.058Z,16.75
2019-06-26T13:10:00.718Z,11.08
2019-06-26T13:12:27.298Z,13.00
2019-06-26T13:14:54.040Z,17.27
2019-06-26T13:17:20.637Z,11.65
2019-06-26T13:19:47.218Z,11.70
2019-06-26T13:22:13.834Z,10.88
2019-06-26T13:24:43.769Z,11.12
2019-06-26T13:27:09.019Z,11.70
2019-06-26T13:29:35.726Z,11.70
2019-06-26T13:32:02.374Z,13.15
2019-06-26T13:34:29.026Z,15.13
2019-06-26T13:36:55.670Z,13.88
2019-06-26T13:39:31.058Z,12.60
2019-06-26T13:41:57.699Z,14.03
2019-06-26T13:44:24.319Z,14.13
2019-06-26T13:46:50.952Z,14.93
2019-06-26T13:49:17.566Z,15.50
2019-06-26T13:51:44.146Z,16.00
2019-06-26T13:54:10.786Z,18.40
2019-06-26T13:56:37.534Z,17.12
2019-06-26T13:59:07.300Z,16.40
2019-06-26T14:01:32.585Z,14.75
2019-06-26T14:03:59.323Z,14.63
2019-06-26T14:06:25.878Z,14.40
2019-06-26T14:08:52.456Z,13.75
2019-06-26T14:11:19.025Z,13.70
2019-06-26T14:13:45.665Z,15.00
2019-06-26T14:16:12.306Z,15.13
2019-06-26T14:18:38.942Z,13.85
2019-06-26T14:21:06.670Z,14.83
2019-06-26T14:23:33.308Z,14.25
2019-06-26T14:25:59.918Z,14.18
2019-06-26T14:28:26.554Z,15.25
2019-06-26T14:30:53.140Z,14.90
2019-06-26T14:33:20.007Z,15.50
2019-06-26T14:35:47.473Z,13.83
2019-06-26T14:38:14.287Z,15.05
2019-06-26T14:40:40.907Z,12.93
2019-06-26T14:43:07.529Z,13.30
2019-06-26T14:45:34.511Z,12.78
2019-06-26T14:48:01.095Z,12.90
2019-06-26T14:50:27.770Z,13.03
2019-06-26T14:52:54.374Z,11.93
2019-06-26T14:55:21.024Z,11.45
2019-06-26T14:57:47.775Z,11.28
2019-06-26T15:00:14.706Z,10.63
2019-06-26T15:02:41.322Z,11.43
2019-06-26T15:05:08.018Z,11.60
2019-06-26T15:07:34.638Z,10.08
2019-06-26T15:10:01.770Z,9.48
2019-06-26T15:12:28.331Z,9.85
2019-06-26T15:14:54.991Z,11.95
2019-06-26T15:17:21.686Z,11.85
2019-06-26T15:19:48.351Z,14.23
2019-06-26T15:22:14.966Z,12.85
2019-06-26T15:25:00.051Z,11.45
2019-06-26T15:27:26.670Z,11.73
2019-06-26T15:29:53.254Z,10.78
2019-06-26T15:32:19.975Z,12.28
2019-06-26T15:34:46.615Z,10.28
2019-06-26T15:37:13.380Z,10.23
2019-06-26T15:39:40.017Z,10.00
2019-06-26T15:42:06.631Z,10.82
2019-06-26T15:44:33.263Z,9.38
2019-06-26T15:46:59.930Z,9.63
2019-06-26T15:49:35.338Z,8.38
2019-06-26T15:52:14.627Z,9.75
2019-06-26T15:54:30.489Z,9.45
2019-06-26T15:56:57.250Z,7.72
2019-06-26T15:59:23.943Z,6.90
2019-06-26T16:01:50.563Z,6.83
2019-06-26T16:04:17.190Z,7.47
2019-06-26T16:06:43.815Z,6.87
2019-06-26T16:09:10.439Z,6.87
2019-06-26T16:11:37.085Z,7.87
2019-06-26T16:14:03.877Z,7.62
2019-06-26T16:16:31.316Z,6.97
2019-06-26T16:19:02.514Z,9.13
2019-06-26T16:21:29.171Z,12.18
2019-06-26T16:23:55.787Z,7.62
2019-06-26T16:26:22.424Z,7.40
2019-06-26T16:28:49.067Z,7.78
2019-06-26T16:31:15.945Z,7.28
2019-06-26T16:33:42.673Z,12.37
2019-06-26T16:36:09.442Z,14.20
2019-06-26T16:38:36.218Z,6.95
2019-06-26T16:41:02.976Z,6.45
2019-06-26T16:43:29.594Z,7.15
2019-06-26T16:45:56.226Z,6.62
2019-06-26T16:48:22.849Z,8.30
2019-06-26T16:50:49.590Z,7.28
2019-06-26T16:53:16.482Z,7.72
2019-06-26T16:55:43.198Z,6.40
2019-06-26T16:58:09.822Z,7.25
2019-06-26T17:00:36.458Z,7.75
2019-06-26T17:03:03.578Z,8.58
2019-06-26T17:05:30.218Z,8.33
2019-06-26T17:07:56.844Z,8.18
2019-06-26T17:10:23.479Z,7.85
2019-06-26T17:12:50.094Z,7.85
2019-06-26T17:15:16.814Z,8.20
2019-06-26T17:17:43.546Z,7.87
2019-06-26T17:20:11.280Z,8.18
2019-06-26T17:22:37.959Z,9.43
2019-06-26T17:25:05.210Z,8.50
2019-06-26T17:27:31.926Z,8.83
2019-06-26T17:29:58.553Z,8.20
2019-06-26T17:32:25.191Z,9.00
2019-06-26T17:34:51.815Z,9.13
2019-06-26T17:37:18.541Z,8.95
2019-06-26T17:39:45.154Z,9.35
2019-06-26T17:42:11.770Z,10.30
2019-06-26T17:44:38.386Z,11.12
2019-06-26T17:47:07.960Z,10.50
2019-06-26T17:49:34.567Z,10.10
2019-06-26T17:52:01.362Z,9.58
2019-06-26T17:54:27.986Z,9.48
2019-06-26T17:56:54.602Z,9.17
2019-06-26T17:59:21.238Z,9.60
2019-06-26T18:01:47.849Z,8.60
2019-06-26T18:04:14.482Z,9.30
2019-06-26T18:06:41.106Z,8.40
2019-06-26T18:09:07.858Z,7.93
2019-06-26T18:11:34.570Z,9.07
2019-06-26T18:14:01.203Z,8.47
2019-06-26T18:16:27.823Z,9.30
2019-06-26T18:18:54.483Z,8.60
2019-06-26T18:21:21.131Z,8.60
2019-06-26T18:23:47.758Z,8.70
2019-06-26T18:26:14.370Z,8.53
2019-06-26T18:28:40.998Z,8.47
2019-06-26T18:31:07.606Z,8.77
2019-06-26T18:33:34.272Z,8.90
2019-06-26T18:36:00.951Z,9.87
2019-06-26T18:38:27.578Z,13.50
2019-06-26T18:40:54.198Z,11.03
2019-06-26T18:43:20.837Z,9.97
2019-06-26T18:45:47.571Z,10.17
2019-06-26T18:48:14.186Z,9.70
2019-06-26T18:50:41.121Z,10.33
2019-06-26T18:53:07.734Z,9.30
2019-06-26T18:55:34.487Z,9.57
2019-06-26T18:58:01.876Z,10.27
2019-06-26T19:00:28.611Z,9.77
2019-06-26T19:02:55.231Z,10.07
2019-06-26T19:05:22.011Z,9.20
2019-06-26T19:07:49.291Z,9.97
2019-06-26T19:10:16.226Z,9.13
2019-06-26T19:12:42.843Z,9.47
2019-06-26T19:15:10.166Z,9.27
2019-06-26T19:17:36.812Z,9.37
2019-06-26T19:20:05.508Z,9.77
2019-06-26T19:22:32.331Z,9.27
2019-06-26T19:24:58.977Z,9.70
2019-06-26T19:27:25.608Z,9.53
2019-06-26T19:29:52.238Z,9.50
2019-06-26T19:32:18.855Z,10.30
2019-06-26T19:34:45.490Z,10.37
2019-06-26T19:37:12.116Z,9.33
2019-06-26T19:39:38.846Z,9.70
2019-06-26T19:42:05.491Z,10.50
2019-06-26T19:44:32.135Z,10.63
2019-06-26T19:46:58.852Z,9.67
2019-06-26T19:49:25.470Z,8.63
2019-06-26T19:51:52.102Z,9.50
2019-06-26T19:54:27.551Z,9.10
2019-06-26T19:56:47.275Z,9.90
2019-06-26T19:59:13.886Z,8.83
2019-06-26T20:01:40.522Z,9.40
2019-06-26T20:04:07.142Z,9.40
2019-06-26T20:06:33.890Z,9.10
2019-06-26T20:09:00.610Z,8.90
2019-06-26T20:11:27.273Z,9.53
2019-06-26T20:13:54.280Z,9.47
2019-06-26T20:16:21.019Z,9.80
2019-06-26T20:18:47.641Z,9.67
2019-06-26T20:21:14.268Z,8.77
2019-06-26T20:23:41.003Z,9.40
2019-06-26T20:26:07.643Z,9.03
2019-06-26T20:28:34.271Z,8.83
2019-06-26T20:31:01.088Z,9.07
2019-06-26T20:33:27.746Z,9.10
2019-06-26T20:35:54.462Z,8.47
2019-06-26T20:38:21.122Z,9.00
2019-06-26T20:41:06.567Z,8.70
2019-06-26T20:43:33.199Z,8.37
2019-06-26T20:45:59.844Z,8.57
2019-06-26T20:48:26.487Z,8.40
2019-06-26T20:50:53.105Z,8.80
2019-06-26T20:53:19.728Z,8.47
2019-06-26T20:55:46.354Z,8.17
2019-06-26T20:58:13.094Z,8.27
2019-06-26T21:00:39.761Z,8.00
2019-06-26T21:03:08.259Z,12.10
2019-06-26T21:05:34.974Z,13.77
2019-06-26T21:08:01.694Z,10.00
2019-06-26T21:10:28.350Z,7.83
2019-06-26T21:12:54.978Z,7.50
2019-06-26T21:15:21.610Z,10.87
2019-06-26T21:17:48.395Z,11.93
2019-06-26T21:20:15.266Z,8.60
2019-06-26T21:22:42.010Z,8.23
2019-06-26T21:25:18.204Z,8.20
2019-06-26T21:27:37.378Z,7.87
2019-06-26T21:30:04.521Z,7.80
2019-06-26T21:32:31.130Z,8.03
2019-06-26T21:34:57.790Z,7.60
2019-06-26T21:37:24.401Z,8.20
2019-06-26T21:39:51.036Z,7.57
2019-06-26T21:42:17.992Z,7.80
2019-06-26T21:44:44.711Z,7.70
2019-06-26T21:47:11.349Z,7.10
2019-06-26T21:49:38.206Z,7.37
2019-06-26T21:52:05.002Z,7.33
2019-06-26T21:54:34.554Z,7.33
2019-06-26T21:57:01.286Z,6.77
2019-06-26T21:59:27.975Z,6.87
2019-06-26T22:01:54.782Z,7.07
2019-06-26T22:04:21.734Z,6.47
2019-06-26T22:06:48.348Z,6.40
2019-06-26T22:09:15.335Z,6.17
2019-06-26T22:11:42.219Z,5.60
2019-06-26T22:14:09.057Z,5.63
2019-06-26T22:16:35.781Z,5.60
2019-06-26T22:19:02.421Z,5.93
2019-06-26T22:21:29.031Z,5.40
2019-06-26T22:23:56.050Z,5.40
2019-06-26T22:26:22.879Z,5.80
2019-06-26T22:29:07.994Z,5.10
2019-06-26T22:31:34.693Z,4.90
2019-06-26T22:34:01.425Z,4.80
2019-06-26T22:36:28.046Z,4.80
2019-06-26T22:38:54.653Z,4.97
2019-06-26T22:41:21.363Z,4.70
2019-06-26T22:43:48.072Z,4.67
2019-06-26T22:46:14.723Z,4.37
2019-06-26T22:48:41.437Z,4.87
2019-06-26T22:51:08.084Z,4.30
2019-06-26T22:53:34.895Z,4.40
2019-06-26T22:56:07.516Z,4.47
2019-06-26T22:58:30.260Z,4.30
2019-06-26T23:00:56.891Z,4.23
2019-06-26T23:03:23.530Z,4.60
2019-06-26T23:05:50.303Z,3.70
2019-06-26T23:08:17.057Z,4.00
2019-06-26T23:10:43.819Z,3.77
2019-06-26T23:13:10.441Z,3.80
2019-06-26T23:15:37.096Z,3.40
2019-06-26T23:18:03.837Z,3.37
2019-06-26T23:20:30.545Z,3.50
2019-06-26T23:22:57.184Z,3.53
2019-06-26T23:25:23.807Z,3.63
2019-06-26T23:27:50.447Z,3.10
2019-06-26T23:30:17.771Z,3.40
2019-06-26T23:32:44.427Z,3.60
2019-06-26T23:35:11.055Z,3.67
2019-06-26T23:37:37.691Z,3.67
2019-06-26T23:40:04.329Z,3.57
2019-06-26T23:42:30.968Z,3.40
2019-06-26T23:44:57.587Z,3.33
2019-06-26T23:47:24.224Z,3.40
2019-06-26T23:49:50.846Z,3.10
2019-06-26T23:52:17.483Z,3.00
2019-06-26T23:54:44.099Z,2.97
2019-06-26T23:57:10.736Z,2.80
2019-06-26T23:59:37.357Z,3.13
